Sacramento, California
Traffic Map
Current Weather Conditions
Sacramento, California
Clear
Clear

Feels Like: 5°
Wind Chill: Ceiling: Unl
Heat Index: Visibility: 10mi
Dew Point: Wind: 7mph
Humidity: 71% Direction: 350° (N)
Pressure: 30.03in Gusts: 0mph
Raw Report DataKSAC 260353Z 35006KT 10SM CLR 07/02 A3003 RMK AO2 SLP169 T00720022
Traffic Incident Summary
Active as of:
Severity:
Category:
InformationThere was an issue retrieving the traffic information for this location. Please try a different location or try again shortly.
Advertisements
Track Severe Weather on mobile